Freedom of the Seas — C6UZ7 — position and weather

sailwx.info

Track history (hours):
 
Tides and Currents Weather Stations Pressure Air Temp Water Temp Dewpoint Dewpoint Depression Visibility Wind Speed Wind Dir Waves Ship Positions

Freedom of the Seas

Last reported at 2019-Jul-19 11:00 UTC. Time now 2019-Jul-19 19:35 UTC.
Position N 14°18' W 066°48'.

Length 339 m; draft 9 m.

Type: Ship. MMSI: 309906000.

Wind from 100 at 22 knots

Barometer 1015.3 mb
Water temperature 28.0 ° C

Date/timePositionNaut miles runAvg speedWind from/ knotsBaromVisibWave heightAir tempDewpointWater temp
2019-Jul-19 11:00N 14°18' W 066°48'180 3.9 100 / 221015.3 28.0
2019-Jul-17 13:00N 12°06' W 068°54'13 4.4 080 / 141015.0 5.4 28.025.2
2019-Jul-17 10:00N 12°00' W 069°06'61 4.3 100 / 191015.0 27.225.228.0
2019-Jul-16 20:00N 12°30' W 070°00'195 8.1 060 / 341014.0 5.4 30.025.8
2019-Jul-15 20:00N 15°30' W 068°42'10615.2 090 / 171016.0 29.026.2
2019-Jul-15 13:00N 17°06' W 067°54'13110.9 080 / 231017.2 28.024.728.0
2019-Jul-15 01:00N 18°30' W 066°08'3 5.1
2019-Jul-15 00:30N 18°28' W 066°06'0 0.0
2019-Jul-14 23:57N 18°28' W 066°06'0 0.0
2019-Jul-14 23:30N 18°28' W 066°06'0 0.0
2019-Jul-14 22:57N 18°28' W 066°06'0 0.0
2019-Jul-14 22:27N 18°28' W 066°06'0 0.0
2019-Jul-14 22:00N 18°28' W 066°06'0 0.0
2019-Jul-14 21:30N 18°28' W 066°06'0 0.0
2019-Jul-14 21:00N 18°28' W 066°06'0 0.0
2019-Jul-14 20:30N 18°28' W 066°06'0 0.0
2019-Jul-14 19:57N 18°28' W 066°06'0 0.0
2019-Jul-14 19:27N 18°28' W 066°06'0 0.0
2019-Jul-14 19:00N 18°28' W 066°06'0 0.0
2019-Jul-14 18:30N 18°28' W 066°06'0 0.0
2019-Jul-14 18:00N 18°28' W 066°06'0 0.0
2019-Jul-14 17:30N 18°28' W 066°06'4 7.0
2019-Jul-14 17:00N 18°24' W 066°06'418.6 090 / 201018.0 29.024.8
2019-Jul-14 16:48N 18°28' W 066°06'0 0.0
2019-Jul-14 16:30N 18°28' W 066°06'0 0.0
2019-Jul-14 16:00N 18°28' W 066°06'0 0.0
2019-Jul-14 15:30N 18°28' W 066°06'0 0.0
2019-Jul-14 15:00N 18°28' W 066°06'0 0.0
2019-Jul-14 14:24N 18°28' W 066°06'0 0.0
2019-Jul-14 14:00N 18°28' W 066°06'0 0.0
2019-Jul-14 13:06N 18°28' W 066°06'0 0.0
2019-Jul-14 13:00N 18°28' W 066°06'0 0.0
2019-Jul-14 12:27N 18°28' W 066°06'0 0.0
2019-Jul-14 11:57N 18°28' W 066°06'0 0.0
2019-Jul-14 11:24N 18°28' W 066°06'0 0.0
2019-Jul-14 10:45N 18°28' W 066°06'0 0.0
2019-Jul-14 10:30N 18°28' W 066°06'0 0.0
2019-Jul-14 09:42N 18°28' W 066°06'0 1.3
2019-Jul-14 09:28N 18°28' W 066°06'1 2.6
2019-Jul-14 09:00N 18°28' W 066°08'5 9.4
2019-Jul-14 08:30N 18°32' W 066°06'610.9
2019-Jul-14 07:57N 18°33' W 065°60'1211.5
2019-Jul-14 06:55N 18°32' W 065°47'511.2
2019-Jul-14 06:30N 18°32' W 065°42'1413.2
2019-Jul-14 05:27N 18°29' W 065°28'614.0
2019-Jul-14 05:00N 18°28' W 065°22'713.4
2019-Jul-14 04:30N 18°25' W 065°15'714.1
2019-Jul-14 04:00N 18°20' W 065°10'713.7
2019-Jul-14 03:31N 18°15' W 065°05'713.8
2019-Jul-14 03:01N 18°11' W 064°59'714.2
2019-Jul-14 02:31N 18°08' W 064°53'713.8
2019-Jul-14 02:00N 18°04' W 064°46'29116.6
2019-Jul-13 08:28N 14°30' W 061°21'1418.4
2019-Jul-13 07:41N 14°20' W 061°11'317.9
2019-Jul-13 07:31N 14°18' W 061°08'918.0
2019-Jul-13 07:00N 14°15' W 060°60'1018.7
2019-Jul-13 06:30N 14°10' W 060°51'4317.0
2019-Jul-13 04:00N 13°42' W 060°18'21 0.9 090 / 201015.0 28.0
2019-Jul-12 04:00N 13°30' W 060°36'35 2.9 070 / 251013.9 27.824.128.0
2019-Jul-11 16:00N 14°00' W 060°54'16 3.3 100 / 171015.0 29.024.8
2019-Jul-11 11:07N 14°09' W 061°08'211.8
2019-Jul-11 10:59N 14°10' W 061°09'612.2
2019-Jul-11 10:28N 14°15' W 061°13'1812.5
2019-Jul-11 09:01N 14°30' W 061°23'7014.0
2019-Jul-11 04:00N 15°36' W 061°48'   050 / 291017.0 28.0
Track history (hours):
 
Tides and Currents Weather Stations Pressure Air Temp Water Temp Dewpoint Dewpoint Depression Visibility Wind Speed Wind Dir Waves Ship Positions

Freedom of the Seas

Last reported at 2019-Jul-19 11:00 UTC. Time now 2019-Jul-19 19:35 UTC.
Position N 14°18' W 066°48'.

Length 339 m; draft 9 m.

Type: Ship. MMSI: 309906000.

Wind from 100 at 22 knots

Barometer 1015.3 mb
Water temperature 28.0 ° C

Date/timePositionNaut miles runAvg speedWind from/ knotsBaromVisibWave heightAir tempDewpointWater temp
2019-Jul-19 11:00N 14°18' W 066°48'180 3.9 100 / 221015.3 28.0
2019-Jul-17 13:00N 12°06' W 068°54'13 4.4 080 / 141015.0 5.4 28.025.2
2019-Jul-17 10:00N 12°00' W 069°06'61 4.3 100 / 191015.0 27.225.228.0
2019-Jul-16 20:00N 12°30' W 070°00'195 8.1 060 / 341014.0 5.4 30.025.8
2019-Jul-15 20:00N 15°30' W 068°42'10615.2 090 / 171016.0 29.026.2
2019-Jul-15 13:00N 17°06' W 067°54'13110.9 080 / 231017.2 28.024.728.0
2019-Jul-15 01:00N 18°30' W 066°08'3 5.1
2019-Jul-15 00:30N 18°28' W 066°06'0 0.0
2019-Jul-14 23:57N 18°28' W 066°06'0 0.0
2019-Jul-14 23:30N 18°28' W 066°06'0 0.0
2019-Jul-14 22:57N 18°28' W 066°06'0 0.0
2019-Jul-14 22:27N 18°28' W 066°06'0 0.0
2019-Jul-14 22:00N 18°28' W 066°06'0 0.0
2019-Jul-14 21:30N 18°28' W 066°06'0 0.0
2019-Jul-14 21:00N 18°28' W 066°06'0 0.0
2019-Jul-14 20:30N 18°28' W 066°06'0 0.0
2019-Jul-14 19:57N 18°28' W 066°06'0 0.0
2019-Jul-14 19:27N 18°28' W 066°06'0 0.0
2019-Jul-14 19:00N 18°28' W 066°06'0 0.0
2019-Jul-14 18:30N 18°28' W 066°06'0 0.0
2019-Jul-14 18:00N 18°28' W 066°06'0 0.0
2019-Jul-14 17:30N 18°28' W 066°06'4 7.0
2019-Jul-14 17:00N 18°24' W 066°06'418.6 090 / 201018.0 29.024.8
2019-Jul-14 16:48N 18°28' W 066°06'0 0.0
2019-Jul-14 16:30N 18°28' W 066°06'0 0.0
2019-Jul-14 16:00N 18°28' W 066°06'0 0.0
2019-Jul-14 15:30N 18°28' W 066°06'0 0.0
2019-Jul-14 15:00N 18°28' W 066°06'0 0.0
2019-Jul-14 14:24N 18°28' W 066°06'0 0.0
2019-Jul-14 14:00N 18°28' W 066°06'0 0.0
2019-Jul-14 13:06N 18°28' W 066°06'0 0.0
2019-Jul-14 13:00N 18°28' W 066°06'0 0.0
2019-Jul-14 12:27N 18°28' W 066°06'0 0.0
2019-Jul-14 11:57N 18°28' W 066°06'0 0.0
2019-Jul-14 11:24N 18°28' W 066°06'0 0.0
2019-Jul-14 10:45N 18°28' W 066°06'0 0.0
2019-Jul-14 10:30N 18°28' W 066°06'0 0.0
2019-Jul-14 09:42N 18°28' W 066°06'0 1.3
2019-Jul-14 09:28N 18°28' W 066°06'1 2.6
2019-Jul-14 09:00N 18°28' W 066°08'5 9.4
2019-Jul-14 08:30N 18°32' W 066°06'610.9
2019-Jul-14 07:57N 18°33' W 065°60'1211.5
2019-Jul-14 06:55N 18°32' W 065°47'511.2
2019-Jul-14 06:30N 18°32' W 065°42'1413.2
2019-Jul-14 05:27N 18°29' W 065°28'614.0
2019-Jul-14 05:00N 18°28' W 065°22'713.4
2019-Jul-14 04:30N 18°25' W 065°15'714.1
2019-Jul-14 04:00N 18°20' W 065°10'713.7
2019-Jul-14 03:31N 18°15' W 065°05'713.8
2019-Jul-14 03:01N 18°11' W 064°59'714.2
2019-Jul-14 02:31N 18°08' W 064°53'713.8
2019-Jul-14 02:00N 18°04' W 064°46'29116.6
2019-Jul-13 08:28N 14°30' W 061°21'1418.4
2019-Jul-13 07:41N 14°20' W 061°11'317.9
2019-Jul-13 07:31N 14°18' W 061°08'918.0
2019-Jul-13 07:00N 14°15' W 060°60'1018.7
2019-Jul-13 06:30N 14°10' W 060°51'4317.0
2019-Jul-13 04:00N 13°42' W 060°18'21 0.9 090 / 201015.0 28.0
2019-Jul-12 04:00N 13°30' W 060°36'35 2.9 070 / 251013.9 27.824.128.0
2019-Jul-11 16:00N 14°00' W 060°54'16 3.3 100 / 171015.0 29.024.8
2019-Jul-11 11:07N 14°09' W 061°08'211.8
2019-Jul-11 10:59N 14°10' W 061°09'612.2
2019-Jul-11 10:28N 14°15' W 061°13'1812.5
2019-Jul-11 09:01N 14°30' W 061°23'7014.0
2019-Jul-11 04:00N 15°36' W 061°48'   050 / 291017.0 28.0

Dump ship's entire track history